Terminal Aerodrome Forecast
Issued by NWS

Home | Current Version | Previous Version | Text Only | Print | Product List | Glossary On
Versions: 1 2 3 4 5 6 7 8 9 10 11 12 13 14 15 16 17 18 19 20 21 22 23 24 25 26 27 28 29 30 31 32 33 34
000
FTUS46 KOTX 270539
TAFCOE
TAF
KCOE 270539Z 2706/2806 17009KT P6SM VCSH SCT040 BKN070 OVC100
     FM271200 20011KT P6SM -SHRA BKN025 OVC050
     FM271800 21011KT P6SM SCT025 OVC080
     FM272200 20013KT P6SM VCSH BKN025 OVC050
      AMD LTD TO CLD AND VIS=

USA.gov is the U.S. government's official web portal to all federal, state and local government web resources and services.